sensor_id;sensor_type;location;lat;lon;timestamp;temperature;humidity
4431;DHT22;2228;48.140;11.488;2023-02-11T00:01:27;-2.70;99.90
4431;DHT22;2228;48.140;11.488;2023-02-11T00:03:56;-2.80;99.90
4431;DHT22;2228;48.140;11.488;2023-02-11T00:06:25;-2.90;99.90
4431;DHT22;2228;48.140;11.488;2023-02-11T00:08:53;-2.90;99.90
4431;DHT22;2228;48.140;11.488;2023-02-11T00:11:21;-2.80;99.90
4431;DHT22;2228;48.140;11.488;2023-02-11T00:13:50;-2.90;99.90
4431;DHT22;2228;48.140;11.488;2023-02-11T00:16:19;-3.00;99.90
4431;DHT22;2228;48.140;11.488;2023-02-11T00:18:47;-3.00;99.90
4431;DHT22;2228;48.140;11.488;2023-02-11T00:21:17;-3.00;99.90
4431;DHT22;2228;48.140;11.488;2023-02-11T00:23:44;-3.00;99.90
4431;DHT22;2228;48.140;11.488;2023-02-11T00:26:12;-3.00;99.90
4431;DHT22;2228;48.140;11.488;2023-02-11T00:28:39;-3.00;99.90
4431;DHT22;2228;48.140;11.488;2023-02-11T00:31:06;-3.00;99.90
4431;DHT22;2228;48.140;11.488;2023-02-11T00:33:33;-3.10;99.90
4431;DHT22;2228;48.140;11.488;2023-02-11T00:36:03;-3.10;99.90
4431;DHT22;2228;48.140;11.488;2023-02-11T00:38:32;-3.20;99.90
4431;DHT22;2228;48.140;11.488;2023-02-11T00:40:59;-3.20;99.90
4431;DHT22;2228;48.140;11.488;2023-02-11T00:43:26;-3.20;99.90
4431;DHT22;2228;48.140;11.488;2023-02-11T00:45:53;-3.20;99.90
4431;DHT22;2228;48.140;11.488;2023-02-11T00:48:20;-3.20;99.90
4431;DHT22;2228;48.140;11.488;2023-02-11T00:50:47;-3.30;99.90
4431;DHT22;2228;48.140;11.488;2023-02-11T00:53:13;-3.10;1.00
4431;DHT22;2228;48.140;11.488;2023-02-11T00:55:42;-3.10;99.90
4431;DHT22;2228;48.140;11.488;2023-02-11T00:58:08;-3.00;99.90
4431;DHT22;2228;48.140;11.488;2023-02-11T01:00:35;-3.00;99.90
4431;DHT22;2228;48.140;11.488;2023-02-11T01:03:02;-2.90;99.90
4431;DHT22;2228;48.140;11.488;2023-02-11T01:05:29;-2.90;99.90
4431;DHT22;2228;48.140;11.488;2023-02-11T01:07:56;-2.90;99.90
4431;DHT22;2228;48.140;11.488;2023-02-11T01:10:24;-3.00;99.90
4431;DHT22;2228;48.140;11.488;2023-02-11T01:12:52;-3.00;99.90
4431;DHT22;2228;48.140;11.488;2023-02-11T01:15:19;-3.10;99.90
4431;DHT22;2228;48.140;11.488;2023-02-11T01:17:46;-3.00;1.00
4431;DHT22;2228;48.140;11.488;2023-02-11T01:20:15;-2.80;1.00
4431;DHT22;2228;48.140;11.488;2023-02-11T01:22:42;-2.70;99.90
4431;DHT22;2228;48.140;11.488;2023-02-11T01:25:09;-2.70;99.90
4431;DHT22;2228;48.140;11.488;2023-02-11T01:27:36;-2.80;99.90
4431;DHT22;2228;48.140;11.488;2023-02-11T01:30:06;-2.80;99.90
4431;DHT22;2228;48.140;11.488;2023-02-11T01:32:34;-2.90;99.90
4431;DHT22;2228;48.140;11.488;2023-02-11T01:35:01;-2.90;99.90
4431;DHT22;2228;48.140;11.488;2023-02-11T01:37:28;-2.70;1.00
4431;DHT22;2228;48.140;11.488;2023-02-11T01:39:55;-2.50;1.00
4431;DHT22;2228;48.140;11.488;2023-02-11T01:42:22;-2.40;1.00
4431;DHT22;2228;48.140;11.488;2023-02-11T01:44:50;-2.30;99.90
4431;DHT22;2228;48.140;11.488;2023-02-11T01:47:20;-2.30;99.90
4431;DHT22;2228;48.140;11.488;2023-02-11T01:49:49;-2.20;99.90
4431;DHT22;2228;48.140;11.488;2023-02-11T01:52:21;-2.30;99.90
4431;DHT22;2228;48.140;11.488;2023-02-11T01:54:52;-2.40;99.90
4431;DHT22;2228;48.140;11.488;2023-02-11T01:57:39;-2.50;99.90
4431;DHT22;2228;48.140;11.488;2023-02-11T02:00:10;-2.50;99.90
4431;DHT22;2228;48.140;11.488;2023-02-11T02:02:44;-2.40;99.90
4431;DHT22;2228;48.140;11.488;2023-02-11T02:05:23;-2.50;99.90
4431;DHT22;2228;48.140;11.488;2023-02-11T02:07:59;-2.50;99.90
4431;DHT22;2228;48.140;11.488;2023-02-11T02:10:30;-2.50;99.90
4431;DHT22;2228;48.140;11.488;2023-02-11T02:12:59;-2.60;99.90
4431;DHT22;2228;48.140;11.488;2023-02-11T02:15:29;-2.70;99.90
4431;DHT22;2228;48.140;11.488;2023-02-11T02:18:17;-2.80;99.90
4431;DHT22;2228;48.140;11.488;2023-02-11T02:21:28;-2.70;99.90
4431;DHT22;2228;48.140;11.488;2023-02-11T02:24:25;-2.60;99.90
4431;DHT22;2228;48.140;11.488;2023-02-11T02:30:23;-2.90;99.90
4431;DHT22;2228;48.140;11.488;2023-02-11T02:33:09;-3.00;99.90
4431;DHT22;2228;48.140;11.488;2023-02-11T02:35:44;-3.10;99.90
4431;DHT22;2228;48.140;11.488;2023-02-11T02:38:16;-3.10;99.90
4431;DHT22;2228;48.140;11.488;2023-02-11T02:40:48;-3.00;99.90
4431;DHT22;2228;48.140;11.488;2023-02-11T02:43:16;-3.10;99.90
4431;DHT22;2228;48.140;11.488;2023-02-11T02:45:44;-3.10;99.90
4431;DHT22;2228;48.140;11.488;2023-02-11T02:48:24;-3.10;99.90
4431;DHT22;2228;48.140;11.488;2023-02-11T02:50:55;-3.00;99.90
4431;DHT22;2228;48.140;11.488;2023-02-11T02:53:34;-3.00;99.90
4431;DHT22;2228;48.140;11.488;2023-02-11T02:56:07;-3.00;99.90
4431;DHT22;2228;48.140;11.488;2023-02-11T02:58:53;-3.00;99.90
4431;DHT22;2228;48.140;11.488;2023-02-11T03:01:34;-3.00;99.90
4431;DHT22;2228;48.140;11.488;2023-02-11T03:04:12;-3.00;99.90
4431;DHT22;2228;48.140;11.488;2023-02-11T03:06:46;-3.10;99.90
4431;DHT22;2228;48.140;11.488;2023-02-11T03:09:17;-3.10;99.90
4431;DHT22;2228;48.140;11.488;2023-02-11T03:11:47;-3.20;99.90
4431;DHT22;2228;48.140;11.488;2023-02-11T03:14:16;-3.20;99.90
4431;DHT22;2228;48.140;11.488;2023-02-11T03:16:45;-3.10;99.90
4431;DHT22;2228;48.140;11.488;2023-02-11T03:19:17;-3.00;99.90
4431;DHT22;2228;48.140;11.488;2023-02-11T03:21:46;-3.00;99.90
4431;DHT22;2228;48.140;11.488;2023-02-11T03:24:19;-3.00;99.90
4431;DHT22;2228;48.140;11.488;2023-02-11T03:26:49;-2.80;99.90
4431;DHT22;2228;48.140;11.488;2023-02-11T03:29:23;-2.80;99.90
4431;DHT22;2228;48.140;11.488;2023-02-11T03:32:00;-2.70;99.90
4431;DHT22;2228;48.140;11.488;2023-02-11T03:34:35;-2.80;99.90
4431;DHT22;2228;48.140;11.488;2023-02-11T03:37:08;-2.80;99.90
4431;DHT22;2228;48.140;11.488;2023-02-11T03:39:38;-2.70;99.90
4431;DHT22;2228;48.140;11.488;2023-02-11T03:42:08;-2.60;99.90
4431;DHT22;2228;48.140;11.488;2023-02-11T03:44:40;-2.50;99.90
4431;DHT22;2228;48.140;11.488;2023-02-11T03:47:11;-2.50;99.90
4431;DHT22;2228;48.140;11.488;2023-02-11T03:49:42;-2.50;99.90
4431;DHT22;2228;48.140;11.488;2023-02-11T03:52:13;-2.40;99.90
4431;DHT22;2228;48.140;11.488;2023-02-11T03:54:42;-2.40;99.90
4431;DHT22;2228;48.140;11.488;2023-02-11T03:57:11;-2.20;99.90
4431;DHT22;2228;48.140;11.488;2023-02-11T03:59:54;-2.10;99.90
4431;DHT22;2228;48.140;11.488;2023-02-11T04:02:22;-2.00;99.90
4431;DHT22;2228;48.140;11.488;2023-02-11T04:04:52;-2.30;99.90
4431;DHT22;2228;48.140;11.488;2023-02-11T04:07:19;-2.30;99.90
4431;DHT22;2228;48.140;11.488;2023-02-11T04:09:45;-2.40;99.90
4431;DHT22;2228;48.140;11.488;2023-02-11T04:12:12;-2.50;99.90
4431;DHT22;2228;48.140;11.488;2023-02-11T04:14:39;-2.40;99.90
4431;DHT22;2228;48.140;11.488;2023-02-11T04:17:06;-2.40;99.90
4431;DHT22;2228;48.140;11.488;2023-02-11T04:19:33;-2.40;99.90
4431;DHT22;2228;48.140;11.488;2023-02-11T04:22:01;-2.50;99.90
4431;DHT22;2228;48.140;11.488;2023-02-11T04:24:29;-2.50;99.90
4431;DHT22;2228;48.140;11.488;2023-02-11T04:26:56;-2.20;99.90
4431;DHT22;2228;48.140;11.488;2023-02-11T04:29:22;-2.20;99.90
4431;DHT22;2228;48.140;11.488;2023-02-11T04:31:49;-2.30;99.90
4431;DHT22;2228;48.140;11.488;2023-02-11T04:34:16;-2.40;99.90
4431;DHT22;2228;48.140;11.488;2023-02-11T04:36:43;-2.20;99.90
4431;DHT22;2228;48.140;11.488;2023-02-11T04:39:12;-2.30;99.90
4431;DHT22;2228;48.140;11.488;2023-02-11T04:41:39;-2.50;99.90
4431;DHT22;2228;48.140;11.488;2023-02-11T04:44:05;-2.60;99.90
4431;DHT22;2228;48.140;11.488;2023-02-11T04:46:32;-2.50;99.90
4431;DHT22;2228;48.140;11.488;2023-02-11T04:48:59;-2.30;99.90
4431;DHT22;2228;48.140;11.488;2023-02-11T04:51:27;-2.30;99.90
4431;DHT22;2228;48.140;11.488;2023-02-11T04:53:54;-2.30;99.90
4431;DHT22;2228;48.140;11.488;2023-02-11T04:56:22;-2.40;99.90
4431;DHT22;2228;48.140;11.488;2023-02-11T04:58:49;-2.70;99.90
4431;DHT22;2228;48.140;11.488;2023-02-11T05:01:16;-2.80;99.90
4431;DHT22;2228;48.140;11.488;2023-02-11T05:03:43;-2.60;99.90
4431;DHT22;2228;48.140;11.488;2023-02-11T05:06:10;-2.60;99.90
4431;DHT22;2228;48.140;11.488;2023-02-11T05:08:37;-2.60;99.90
4431;DHT22;2228;48.140;11.488;2023-02-11T05:11:04;-2.60;99.90
4431;DHT22;2228;48.140;11.488;2023-02-11T05:13:33;-2.50;99.90
4431;DHT22;2228;48.140;11.488;2023-02-11T05:16:00;-2.60;99.90
4431;DHT22;2228;48.140;11.488;2023-02-11T05:18:26;-2.50;99.90
4431;DHT22;2228;48.140;11.488;2023-02-11T05:20:53;-2.50;99.90
4431;DHT22;2228;48.140;11.488;2023-02-11T05:23:20;-2.50;99.90
4431;DHT22;2228;48.140;11.488;2023-02-11T05:25:47;-2.20;99.90
4431;DHT22;2228;48.140;11.488;2023-02-11T05:28:14;-2.10;99.90
4431;DHT22;2228;48.140;11.488;2023-02-11T05:30:43;-2.10;99.90
4431;DHT22;2228;48.140;11.488;2023-02-11T05:33:09;-2.00;99.90
4431;DHT22;2228;48.140;11.488;2023-02-11T05:35:36;-1.90;1.00
4431;DHT22;2228;48.140;11.488;2023-02-11T05:38:03;-1.80;99.90
4431;DHT22;2228;48.140;11.488;2023-02-11T05:40:30;-1.70;99.90
4431;DHT22;2228;48.140;11.488;2023-02-11T05:42:57;-1.70;1.00
4431;DHT22;2228;48.140;11.488;2023-02-11T05:45:24;-1.70;99.90
4431;DHT22;2228;48.140;11.488;2023-02-11T05:47:52;-1.80;99.90
4431;DHT22;2228;48.140;11.488;2023-02-11T05:50:19;-1.60;1.00
4431;DHT22;2228;48.140;11.488;2023-02-11T05:52:46;-1.50;99.90
4431;DHT22;2228;48.140;11.488;2023-02-11T05:55:13;-1.50;99.90
4431;DHT22;2228;48.140;11.488;2023-02-11T05:57:40;-1.50;99.90
4431;DHT22;2228;48.140;11.488;2023-02-11T06:00:08;-1.60;99.90
4431;DHT22;2228;48.140;11.488;2023-02-11T06:02:35;-1.60;99.90
4431;DHT22;2228;48.140;11.488;2023-02-11T06:05:04;-1.70;99.90
4431;DHT22;2228;48.140;11.488;2023-02-11T06:07:31;-1.70;1.00
4431;DHT22;2228;48.140;11.488;2023-02-11T06:09:58;-1.50;1.00
4431;DHT22;2228;48.140;11.488;2023-02-11T06:12:24;-1.40;1.00
4431;DHT22;2228;48.140;11.488;2023-02-11T06:14:51;-1.20;1.00
4431;DHT22;2228;48.140;11.488;2023-02-11T06:17:18;-1.00;1.00
4431;DHT22;2228;48.140;11.488;2023-02-11T06:19:45;-0.80;1.00
4431;DHT22;2228;48.140;11.488;2023-02-11T06:22:14;-0.70;99.90
4431;DHT22;2228;48.140;11.488;2023-02-11T06:24:41;-0.60;99.90
4431;DHT22;2228;48.140;11.488;2023-02-11T06:27:08;-0.60;99.90
4431;DHT22;2228;48.140;11.488;2023-02-11T06:29:35;-0.60;99.90
4431;DHT22;2228;48.140;11.488;2023-02-11T06:32:02;-0.50;99.90
4431;DHT22;2228;48.140;11.488;2023-02-11T06:34:29;-0.30;99.90
4431;DHT22;2228;48.140;11.488;2023-02-11T06:36:56;-0.30;99.90
4431;DHT22;2228;48.140;11.488;2023-02-11T06:39:24;-0.30;99.90
4431;DHT22;2228;48.140;11.488;2023-02-11T06:41:51;-0.20;99.90
4431;DHT22;2228;48.140;11.488;2023-02-11T06:44:18;-0.10;99.90
4431;DHT22;2228;48.140;11.488;2023-02-11T06:46:44;0.10;99.90
4431;DHT22;2228;48.140;11.488;2023-02-11T06:49:11;0.20;99.90
4431;DHT22;2228;48.140;11.488;2023-02-11T06:51:38;0.20;99.90
4431;DHT22;2228;48.140;11.488;2023-02-11T06:54:06;0.20;99.90
4431;DHT22;2228;48.140;11.488;2023-02-11T06:56:38;0.30;99.90
4431;DHT22;2228;48.140;11.488;2023-02-11T06:59:07;0.30;99.90
4431;DHT22;2228;48.140;11.488;2023-02-11T07:01:34;0.40;99.90
4431;DHT22;2228;48.140;11.488;2023-02-11T07:04:02;0.60;99.90
4431;DHT22;2228;48.140;11.488;2023-02-11T07:06:31;0.60;99.90
4431;DHT22;2228;48.140;11.488;2023-02-11T07:08:59;0.70;99.90
4431;DHT22;2228;48.140;11.488;2023-02-11T07:11:28;0.90;99.90
4431;DHT22;2228;48.140;11.488;2023-02-11T07:14:00;1.00;99.90
4431;DHT22;2228;48.140;11.488;2023-02-11T07:16:27;1.20;99.90
4431;DHT22;2228;48.140;11.488;2023-02-11T07:18:54;1.30;19.80
4431;DHT22;2228;48.140;11.488;2023-02-11T07:21:21;1.30;91.10
4431;DHT22;2228;48.140;11.488;2023-02-11T07:23:49;1.30;99.90
4431;DHT22;2228;48.140;11.488;2023-02-11T07:26:19;1.30;99.10
4431;DHT22;2228;48.140;11.488;2023-02-11T07:28:48;1.20;52.20
4431;DHT22;2228;48.140;11.488;2023-02-11T07:31:17;1.00;35.40
4431;DHT22;2228;48.140;11.488;2023-02-11T07:33:45;0.80;1.40
4431;DHT22;2228;48.140;11.488;2023-02-11T07:36:14;0.70;7.00
4431;DHT22;2228;48.140;11.488;2023-02-11T07:38:41;0.50;20.00
4431;DHT22;2228;48.140;11.488;2023-02-11T07:41:10;0.70;20.50
4431;DHT22;2228;48.140;11.488;2023-02-11T07:43:38;1.00;1.00
4431;DHT22;2228;48.140;11.488;2023-02-11T07:46:06;1.10;16.30
4431;DHT22;2228;48.140;11.488;2023-02-11T07:48:35;1.30;10.50
4431;DHT22;2228;48.140;11.488;2023-02-11T07:51:07;1.60;52.40
4431;DHT22;2228;48.140;11.488;2023-02-11T07:53:34;1.80;15.00
4431;DHT22;2228;48.140;11.488;2023-02-11T07:56:01;1.90;21.70
4431;DHT22;2228;48.140;11.488;2023-02-11T07:58:28;1.90;1.00
4431;DHT22;2228;48.140;11.488;2023-02-11T08:00:59;1.70;1.00
4431;DHT22;2228;48.140;11.488;2023-02-11T08:03:26;1.60;1.00
4431;DHT22;2228;48.140;11.488;2023-02-11T08:05:54;1.60;1.00
4431;DHT22;2228;48.140;11.488;2023-02-11T08:08:21;1.70;1.00
4431;DHT22;2228;48.140;11.488;2023-02-11T08:10:48;1.80;1.00
4431;DHT22;2228;48.140;11.488;2023-02-11T08:13:15;1.90;1.00
4431;DHT22;2228;48.140;11.488;2023-02-11T08:15:42;2.10;1.00
4431;DHT22;2228;48.140;11.488;2023-02-11T08:18:09;2.20;1.00
4431;DHT22;2228;48.140;11.488;2023-02-11T08:20:36;2.60;1.00
4431;DHT22;2228;48.140;11.488;2023-02-11T08:23:06;3.10;1.00
4431;DHT22;2228;48.140;11.488;2023-02-11T08:25:33;3.50;1.00
4431;DHT22;2228;48.140;11.488;2023-02-11T08:28:00;3.80;1.00
4431;DHT22;2228;48.140;11.488;2023-02-11T08:30:26;3.70;1.00
4431;DHT22;2228;48.140;11.488;2023-02-11T08:32:53;3.60;1.00
4431;DHT22;2228;48.140;11.488;2023-02-11T08:35:21;3.60;1.00
4431;DHT22;2228;48.140;11.488;2023-02-11T08:37:47;3.60;1.00
4431;DHT22;2228;48.140;11.488;2023-02-11T08:40:16;3.50;1.00
4431;DHT22;2228;48.140;11.488;2023-02-11T08:42:43;3.40;1.00
4431;DHT22;2228;48.140;11.488;2023-02-11T08:45:10;3.50;1.00
4431;DHT22;2228;48.140;11.488;2023-02-11T08:47:38;3.70;1.00
4431;DHT22;2228;48.140;11.488;2023-02-11T08:50:05;3.70;1.00
4431;DHT22;2228;48.140;11.488;2023-02-11T08:52:32;3.70;1.00
4431;DHT22;2228;48.140;11.488;2023-02-11T08:54:59;3.60;1.00
4431;DHT22;2228;48.140;11.488;2023-02-11T08:57:28;3.70;1.00
4431;DHT22;2228;48.140;11.488;2023-02-11T08:59:54;3.90;1.00
4431;DHT22;2228;48.140;11.488;2023-02-11T09:02:21;4.10;1.00
4431;DHT22;2228;48.140;11.488;2023-02-11T09:04:48;4.40;1.00
4431;DHT22;2228;48.140;11.488;2023-02-11T09:07:15;4.50;1.00
4431;DHT22;2228;48.140;11.488;2023-02-11T09:09:42;4.50;1.00
4431;DHT22;2228;48.140;11.488;2023-02-11T09:12:09;4.40;1.00
4431;DHT22;2228;48.140;11.488;2023-02-11T09:14:37;4.60;1.00
4431;DHT22;2228;48.140;11.488;2023-02-11T09:17:04;4.70;1.00
4431;DHT22;2228;48.140;11.488;2023-02-11T09:19:31;4.70;1.00
4431;DHT22;2228;48.140;11.488;2023-02-11T09:21:58;4.80;1.00
4431;DHT22;2228;48.140;11.488;2023-02-11T09:24:25;4.50;1.00
4431;DHT22;2228;48.140;11.488;2023-02-11T09:26:52;4.50;1.00
4431;DHT22;2228;48.140;11.488;2023-02-11T09:29:19;4.60;1.00
4431;DHT22;2228;48.140;11.488;2023-02-11T09:31:47;4.80;1.00
4431;DHT22;2228;48.140;11.488;2023-02-11T09:34:14;5.20;1.00
4431;DHT22;2228;48.140;11.488;2023-02-11T09:36:41;5.50;1.00
4431;DHT22;2228;48.140;11.488;2023-02-11T09:39:11;5.60;1.00
4431;DHT22;2228;48.140;11.488;2023-02-11T09:41:57;5.20;1.00
4431;DHT22;2228;48.140;11.488;2023-02-11T09:44:29;4.70;1.00
4431;DHT22;2228;48.140;11.488;2023-02-11T09:47:00;4.30;1.00
4431;DHT22;2228;48.140;11.488;2023-02-11T09:49:33;4.60;1.00
4431;DHT22;2228;48.140;11.488;2023-02-11T09:52:05;4.80;1.00
4431;DHT22;2228;48.140;11.488;2023-02-11T09:54:35;5.00;1.00
4431;DHT22;2228;48.140;11.488;2023-02-11T09:57:08;5.90;1.00
4431;DHT22;2228;48.140;11.488;2023-02-11T09:59:35;7.00;1.00
4431;DHT22;2228;48.140;11.488;2023-02-11T10:02:10;7.80;1.00
4431;DHT22;2228;48.140;11.488;2023-02-11T10:05:08;8.60;1.00
4431;DHT22;2228;48.140;11.488;2023-02-11T10:07:43;8.60;1.00
4431;DHT22;2228;48.140;11.488;2023-02-11T10:10:18;8.30;1.00
4431;DHT22;2228;48.140;11.488;2023-02-11T10:13:00;7.90;1.00
4431;DHT22;2228;48.140;11.488;2023-02-11T10:15:41;7.60;1.00
4431;DHT22;2228;48.140;11.488;2023-02-11T10:18:38;7.00;1.00
4431;DHT22;2228;48.140;11.488;2023-02-11T10:21:14;6.70;1.00
4431;DHT22;2228;48.140;11.488;2023-02-11T10:23:47;6.50;1.00
4431;DHT22;2228;48.140;11.488;2023-02-11T10:26:17;6.70;1.00
4431;DHT22;2228;48.140;11.488;2023-02-11T10:28:46;6.90;1.00
4431;DHT22;2228;48.140;11.488;2023-02-11T10:31:16;7.40;1.00
4431;DHT22;2228;48.140;11.488;2023-02-11T10:33:48;7.50;1.00
4431;DHT22;2228;48.140;11.488;2023-02-11T10:36:17;7.60;1.00
4431;DHT22;2228;48.140;11.488;2023-02-11T10:38:45;7.70;1.00
4431;DHT22;2228;48.140;11.488;2023-02-11T10:41:16;8.00;1.00
4431;DHT22;2228;48.140;11.488;2023-02-11T10:43:43;7.90;1.00
4431;DHT22;2228;48.140;11.488;2023-02-11T10:46:16;8.20;1.00
4431;DHT22;2228;48.140;11.488;2023-02-11T10:48:47;8.40;1.00
4431;DHT22;2228;48.140;11.488;2023-02-11T10:51:18;8.00;1.00
4431;DHT22;2228;48.140;11.488;2023-02-11T10:53:46;7.80;1.00
4431;DHT22;2228;48.140;11.488;2023-02-11T10:56:22;8.10;1.00
4431;DHT22;2228;48.140;11.488;2023-02-11T10:58:57;8.40;1.00
4431;DHT22;2228;48.140;11.488;2023-02-11T11:01:41;8.30;1.00
4431;DHT22;2228;48.140;11.488;2023-02-11T11:04:33;8.40;1.00
4431;DHT22;2228;48.140;11.488;2023-02-11T11:07:25;8.20;1.00
4431;DHT22;2228;48.140;11.488;2023-02-11T11:09:53;7.90;1.00
4431;DHT22;2228;48.140;11.488;2023-02-11T11:12:30;7.90;1.00
4431;DHT22;2228;48.140;11.488;2023-02-11T11:14:59;7.80;1.00
4431;DHT22;2228;48.140;11.488;2023-02-11T11:17:27;8.00;1.00
4431;DHT22;2228;48.140;11.488;2023-02-11T11:20:13;8.10;1.00
4431;DHT22;2228;48.140;11.488;2023-02-11T11:22:41;8.10;1.00
4431;DHT22;2228;48.140;11.488;2023-02-11T11:25:24;7.80;1.00
4431;DHT22;2228;48.140;11.488;2023-02-11T11:27:53;7.60;1.00
4431;DHT22;2228;48.140;11.488;2023-02-11T11:30:24;7.50;1.00
4431;DHT22;2228;48.140;11.488;2023-02-11T11:32:52;7.20;1.00
4431;DHT22;2228;48.140;11.488;2023-02-11T11:35:24;7.10;1.00
4431;DHT22;2228;48.140;11.488;2023-02-11T11:37:53;6.90;1.00
4431;DHT22;2228;48.140;11.488;2023-02-11T11:40:22;7.00;1.00
4431;DHT22;2228;48.140;11.488;2023-02-11T11:43:03;7.10;1.00
4431;DHT22;2228;48.140;11.488;2023-02-11T11:45:30;7.40;1.00
4431;DHT22;2228;48.140;11.488;2023-02-11T11:47:59;7.50;1.00
4431;DHT22;2228;48.140;11.488;2023-02-11T11:50:32;7.60;1.00
4431;DHT22;2228;48.140;11.488;2023-02-11T11:53:04;7.60;1.00
4431;DHT22;2228;48.140;11.488;2023-02-11T11:55:37;7.60;1.00
4431;DHT22;2228;48.140;11.488;2023-02-11T11:58:11;7.80;1.00
4431;DHT22;2228;48.140;11.488;2023-02-11T12:00:49;8.00;1.00
4431;DHT22;2228;48.140;11.488;2023-02-11T12:03:59;8.00;1.00
4431;DHT22;2228;48.140;11.488;2023-02-11T12:06:37;8.20;1.00
4431;DHT22;2228;48.140;11.488;2023-02-11T12:09:14;8.20;1.00
4431;DHT22;2228;48.140;11.488;2023-02-11T12:11:57;8.50;1.00
4431;DHT22;2228;48.140;11.488;2023-02-11T12:14:37;8.50;1.00
4431;DHT22;2228;48.140;11.488;2023-02-11T12:17:13;8.30;1.00
4431;DHT22;2228;48.140;11.488;2023-02-11T12:19:58;8.10;1.00
4431;DHT22;2228;48.140;11.488;2023-02-11T12:22:42;8.00;1.00
4431;DHT22;2228;48.140;11.488;2023-02-11T12:25:25;7.90;1.00
4431;DHT22;2228;48.140;11.488;2023-02-11T12:28:00;7.90;1.00
4431;DHT22;2228;48.140;11.488;2023-02-11T12:30:55;7.90;1.00
4431;DHT22;2228;48.140;11.488;2023-02-11T12:33:48;8.10;1.00
4431;DHT22;2228;48.140;11.488;2023-02-11T12:36:24;8.30;1.00
4431;DHT22;2228;48.140;11.488;2023-02-11T12:39:05;8.30;1.00
4431;DHT22;2228;48.140;11.488;2023-02-11T12:41:47;8.30;1.00
4431;DHT22;2228;48.140;11.488;2023-02-11T12:44:43;8.50;1.00
4431;DHT22;2228;48.140;11.488;2023-02-11T12:47:19;8.50;1.00
4431;DHT22;2228;48.140;11.488;2023-02-11T12:50:06;8.70;1.00
4431;DHT22;2228;48.140;11.488;2023-02-11T12:52:53;8.90;1.00
4431;DHT22;2228;48.140;11.488;2023-02-11T12:55:27;9.30;1.00
4431;DHT22;2228;48.140;11.488;2023-02-11T12:57:57;9.70;1.00
4431;DHT22;2228;48.140;11.488;2023-02-11T13:00:30;9.50;1.00
4431;DHT22;2228;48.140;11.488;2023-02-11T13:03:03;9.30;1.00
4431;DHT22;2228;48.140;11.488;2023-02-11T13:05:37;9.00;1.00
4431;DHT22;2228;48.140;11.488;2023-02-11T13:08:08;8.70;1.00
4431;DHT22;2228;48.140;11.488;2023-02-11T13:10:40;8.50;1.00
4431;DHT22;2228;48.140;11.488;2023-02-11T13:13:14;8.50;1.00
4431;DHT22;2228;48.140;11.488;2023-02-11T13:15:47;8.40;1.00
4431;DHT22;2228;48.140;11.488;2023-02-11T13:18:31;8.60;1.00
4431;DHT22;2228;48.140;11.488;2023-02-11T13:21:17;9.00;1.00
4431;DHT22;2228;48.140;11.488;2023-02-11T13:23:50;9.50;1.00
4431;DHT22;2228;48.140;11.488;2023-02-11T13:26:26;10.00;1.00
4431;DHT22;2228;48.140;11.488;2023-02-11T13:29:05;9.90;1.00
4431;DHT22;2228;48.140;11.488;2023-02-11T13:31:35;10.30;1.00
4431;DHT22;2228;48.140;11.488;2023-02-11T13:34:02;10.80;1.00
4431;DHT22;2228;48.140;11.488;2023-02-11T13:36:30;11.00;1.00
4431;DHT22;2228;48.140;11.488;2023-02-11T13:38:59;11.10;1.00
4431;DHT22;2228;48.140;11.488;2023-02-11T13:41:35;11.60;1.00
4431;DHT22;2228;48.140;11.488;2023-02-11T13:44:15;12.20;1.00
4431;DHT22;2228;48.140;11.488;2023-02-11T13:47:02;12.30;1.00
4431;DHT22;2228;48.140;11.488;2023-02-11T13:49:35;11.70;1.00
4431;DHT22;2228;48.140;11.488;2023-02-11T13:52:16;11.30;1.00
4431;DHT22;2228;48.140;11.488;2023-02-11T13:54:48;11.10;1.00
4431;DHT22;2228;48.140;11.488;2023-02-11T13:57:31;10.50;1.00
4431;DHT22;2228;48.140;11.488;2023-02-11T13:59:59;10.20;1.00
4431;DHT22;2228;48.140;11.488;2023-02-11T14:02:30;9.90;1.00
4431;DHT22;2228;48.140;11.488;2023-02-11T14:05:33;9.80;1.00
4431;DHT22;2228;48.140;11.488;2023-02-11T14:08:20;9.70;1.00
4431;DHT22;2228;48.140;11.488;2023-02-11T14:11:40;9.60;1.00
4431;DHT22;2228;48.140;11.488;2023-02-11T14:14:18;9.50;1.00
4431;DHT22;2228;48.140;11.488;2023-02-11T14:19:47;9.30;1.00
4431;DHT22;2228;48.140;11.488;2023-02-11T14:22:16;9.20;1.00
4431;DHT22;2228;48.140;11.488;2023-02-11T14:24:51;9.00;1.00
4431;DHT22;2228;48.140;11.488;2023-02-11T14:27:39;9.20;1.00
4431;DHT22;2228;48.140;11.488;2023-02-11T14:30:25;9.40;1.00
4431;DHT22;2228;48.140;11.488;2023-02-11T14:33:11;9.20;1.00
4431;DHT22;2228;48.140;11.488;2023-02-11T14:35:46;9.10;1.00
4431;DHT22;2228;48.140;11.488;2023-02-11T14:38:21;9.10;1.00
4431;DHT22;2228;48.140;11.488;2023-02-11T14:40:55;9.10;1.00
4431;DHT22;2228;48.140;11.488;2023-02-11T14:43:26;9.10;1.00
4431;DHT22;2228;48.140;11.488;2023-02-11T14:45:57;9.00;1.00
4431;DHT22;2228;48.140;11.488;2023-02-11T14:48:27;8.80;1.00
4431;DHT22;2228;48.140;11.488;2023-02-11T14:50:59;8.70;1.00
4431;DHT22;2228;48.140;11.488;2023-02-11T14:53:31;8.70;1.00
4431;DHT22;2228;48.140;11.488;2023-02-11T14:55:59;8.50;1.00
4431;DHT22;2228;48.140;11.488;2023-02-11T14:58:28;8.50;1.00
4431;DHT22;2228;48.140;11.488;2023-02-11T15:00:58;8.50;1.00
4431;DHT22;2228;48.140;11.488;2023-02-11T15:03:30;8.50;1.00
4431;DHT22;2228;48.140;11.488;2023-02-11T15:05:58;8.50;1.00
4431;DHT22;2228;48.140;11.488;2023-02-11T15:08:27;8.50;1.00
4431;DHT22;2228;48.140;11.488;2023-02-11T15:10:56;8.40;1.00
4431;DHT22;2228;48.140;11.488;2023-02-11T15:13:24;8.50;1.00
4431;DHT22;2228;48.140;11.488;2023-02-11T15:16:00;8.50;1.00
4431;DHT22;2228;48.140;11.488;2023-02-11T15:18:34;8.60;1.00
4431;DHT22;2228;48.140;11.488;2023-02-11T15:21:03;8.60;1.00
4431;DHT22;2228;48.140;11.488;2023-02-11T15:23:32;8.60;1.00
4431;DHT22;2228;48.140;11.488;2023-02-11T19:54:27;4.00;1.00
4431;DHT22;2228;48.140;11.488;2023-02-11T19:56:55;3.90;1.00
4431;DHT22;2228;48.140;11.488;2023-02-11T19:59:23;3.90;1.00
4431;DHT22;2228;48.140;11.488;2023-02-11T20:01:51;3.90;1.00
4431;DHT22;2228;48.140;11.488;2023-02-11T20:04:18;3.90;1.00
4431;DHT22;2228;48.140;11.488;2023-02-11T20:06:45;3.90;1.00
4431;DHT22;2228;48.140;11.488;2023-02-11T20:09:14;4.10;1.00
4431;DHT22;2228;48.140;11.488;2023-02-11T20:11:42;4.20;1.00
4431;DHT22;2228;48.140;11.488;2023-02-11T20:14:11;4.20;1.00
4431;DHT22;2228;48.140;11.488;2023-02-11T20:16:39;4.20;1.00
4431;DHT22;2228;48.140;11.488;2023-02-11T20:19:06;4.20;1.00
4431;DHT22;2228;48.140;11.488;2023-02-11T20:21:33;4.30;1.00
4431;DHT22;2228;48.140;11.488;2023-02-11T20:24:00;4.20;1.00
4431;DHT22;2228;48.140;11.488;2023-02-11T20:26:29;4.30;1.00
4431;DHT22;2228;48.140;11.488;2023-02-11T20:28:58;4.40;1.00
4431;DHT22;2228;48.140;11.488;2023-02-11T20:31:27;4.50;1.00
4431;DHT22;2228;48.140;11.488;2023-02-11T20:33:54;4.60;1.00
4431;DHT22;2228;48.140;11.488;2023-02-11T20:36:23;4.80;1.00
4431;DHT22;2228;48.140;11.488;2023-02-11T20:38:52;5.10;1.00
4431;DHT22;2228;48.140;11.488;2023-02-11T20:41:21;5.10;1.00
4431;DHT22;2228;48.140;11.488;2023-02-11T20:43:51;5.10;1.00
4431;DHT22;2228;48.140;11.488;2023-02-11T20:46:21;5.00;1.00
4431;DHT22;2228;48.140;11.488;2023-02-11T20:48:48;5.00;1.00
4431;DHT22;2228;48.140;11.488;2023-02-11T20:51:19;5.00;1.00
4431;DHT22;2228;48.140;11.488;2023-02-11T20:53:48;5.00;1.00
4431;DHT22;2228;48.140;11.488;2023-02-11T20:56:17;5.10;1.00
4431;DHT22;2228;48.140;11.488;2023-02-11T20:58:44;5.30;1.00
4431;DHT22;2228;48.140;11.488;2023-02-11T21:01:14;5.30;1.00
4431;DHT22;2228;48.140;11.488;2023-02-11T21:03:47;5.20;1.00
4431;DHT22;2228;48.140;11.488;2023-02-11T21:06:17;5.20;1.00